Time;durP1;ratioP1;P1;durP2;ratioP2;P2;SDS_P1;SDS_P2;PMS_P1;PMS_P2;Temp;Humidity;BMP_temperature;BMP_pressure;BME280_temperature;BME280_humidity;BME280_pressure;Samples;Min_cycle;Max_cycle;Signal;HPM_P1;HPM_P2
2021/06/21 00:00:56;;;;;;;36.22;20.00;;;;;;;;;;5094711;28;20032;-42
2021/06/21 00:03:23;;;;;;;30.10;17.90;;;;;;;;;;5094564;28;20016;-50
2021/06/21 00:05:49;;;;;;;53.75;27.98;;;;;;;;;;5094587;28;20023;-47
2021/06/21 00:08:15;;;;;;;46.30;27.88;;;;;;;;;;5094423;28;20038;-51
2021/06/21 00:10:42;;;;;;;26.25;13.85;;;;;;;;;;5094220;28;20098;-50
2021/06/21 00:13:08;;;;;;;35.88;19.48;;;;;;;;;;5094097;28;20028;-51
2021/06/21 00:15:34;;;;;;;12.43;7.63;;;;;;;;;;5094236;28;20111;-48
2021/06/21 00:18:00;;;;;;;17.15;9.75;;;;;;;;;;5094216;28;20024;-51
2021/06/21 00:20:26;;;;;;;10.48;6.93;;;;;;;;;;5094267;28;20076;-49
2021/06/21 00:22:53;;;;;;;8.88;6.63;;;;;;;;;;5094115;28;20082;-51
2021/06/21 00:25:21;;;;;;;7.78;6.07;;;;;;;;;;5094100;28;20024;-47
2021/06/21 00:27:47;;;;;;;10.35;6.53;;;;;;;;;;5075771;28;20036;-49
2021/06/21 00:30:15;;;;;;;7.20;5.28;;;;;;;;;;5073385;28;20052;-48
2021/06/21 00:32:42;;;;;;;10.77;7.28;;;;;;;;;;5073412;28;20115;-52
2021/06/21 00:35:08;;;;;;;11.82;6.35;;;;;;;;;;5073582;28;20033;-51
2021/06/21 00:37:34;;;;;;;19.45;12.85;;;;;;;;;;5073859;28;20027;-50
2021/06/21 00:40:01;;;;;;;13.10;8.48;;;;;;;;;;5073715;28;20095;-49
2021/06/21 00:42:27;;;;;;;11.82;8.80;;;;;;;;;;5073500;28;20552;-47
2021/06/21 00:44:53;;;;;;;15.82;10.63;;;;;;;;;;5073408;28;20029;-50
2021/06/21 00:47:19;;;;;;;21.73;13.27;;;;;;;;;;5073470;28;20392;-50
2021/06/21 00:49:45;;;;;;;9.00;7.28;;;;;;;;;;5073238;28;20027;-52
2021/06/21 00:52:16;;;;;;;9.40;6.85;;;;;;;;;;5072596;28;20476;-50
2021/06/21 00:54:42;;;;;;;;;;;;;;;;;;5072405;28;20036;-49
2021/06/21 00:57:08;;;;;;;7.72;5.05;;;;;;;;;;5072129;28;20400;-49
2021/06/21 00:59:34;;;;;;;21.90;15.40;;;;;;;;;;5071978;28;20021;-51
2021/06/21 01:02:00;;;;;;;16.27;10.13;;;;;;;;;;5071791;28;20027;-50
2021/06/21 01:04:26;;;;;;;11.82;7.35;;;;;;;;;;5071744;28;20033;-50
2021/06/21 01:06:53;;;;;;;9.40;7.18;;;;;;;;;;5071813;28;20017;-51
2021/06/21 01:09:19;;;;;;;13.52;6.93;;;;;;;;;;5071783;28;20016;-49
2021/06/21 01:12:03;;;;;;;7.40;5.80;;;;;;;;;;5072667;28;20024;-46
2021/06/21 01:14:29;;;;;;;10.57;6.55;;;;;;;;;;5072643;28;20505;-49
2021/06/21 01:17:07;;;;;;;13.15;7.85;;;;;;;;;;5073075;28;20029;-50
2021/06/21 01:19:51;;;;;;;12.82;7.78;;;;;;;;;;5073054;28;20103;-49
2021/06/21 01:22:24;;;;;;;6.32;4.97;;;;;;;;;;5072565;28;20024;-50
2021/06/21 01:25:02;;;;;;;6.30;5.15;;;;;;;;;;5072828;28;20052;-50
2021/06/21 01:27:32;;;;;;;10.40;6.80;;;;;;;;;;5072909;28;20029;-49
2021/06/21 01:29:58;;;;;;;15.63;10.20;;;;;;;;;;5072941;28;20031;-50
2021/06/21 01:32:33;;;;;;;19.00;11.50;;;;;;;;;;5072941;28;20021;-49
2021/06/21 01:35:01;;;;;;;16.05;10.05;;;;;;;;;;5072705;28;20341;-50
2021/06/21 01:37:27;;;;;;;14.27;8.38;;;;;;;;;;5072886;28;20070;-50
2021/06/21 01:39:56;;;;;;;20.25;13.27;;;;;;;;;;5072714;28;20108;-46
2021/06/21 01:42:23;;;;;;;13.02;6.90;;;;;;;;;;5072811;28;20342;-49
2021/06/21 01:45:17;;;;;;;11.88;8.48;;;;;;;;;;5072686;28;20040;-50
2021/06/21 01:47:47;;;;;;;11.30;6.32;;;;;;;;;;5071976;28;20068;-50
2021/06/21 01:50:15;;;;;;;9.30;5.50;;;;;;;;;;5072694;28;20025;-50
2021/06/21 01:52:42;;;;;;;6.57;5.18;;;;;;;;;;5072663;28;20090;-50
2021/06/21 01:55:09;;;;;;;12.25;7.72;;;;;;;;;;5072850;28;20388;-49
2021/06/21 01:57:36;;;;;;;8.63;6.45;;;;;;;;;;5072810;28;20020;-49
2021/06/21 02:00:04;;;;;;;9.32;7.10;;;;;;;;;;5072693;28;20507;-50
2021/06/21 02:02:31;;;;;;;10.07;5.93;;;;;;;;;;5072717;28;20025;-53
2021/06/21 02:04:58;;;;;;;9.93;5.47;;;;;;;;;;5072584;28;20107;-50
2021/06/21 02:07:24;;;;;;;9.60;6.20;;;;;;;;;;5072609;28;20032;-55
2021/06/21 02:09:52;;;;;;;9.75;6.35;;;;;;;;;;5072707;28;20020;-50
2021/06/21 02:12:22;;;;;;;10.48;5.90;;;;;;;;;;5072595;28;20028;-49
2021/06/21 02:14:50;;;;;;;12.55;6.55;;;;;;;;;;5072319;28;20135;-50
2021/06/21 02:17:17;;;;;;;8.55;6.50;;;;;;;;;;5072743;28;20036;-51
2021/06/21 02:19:43;;;;;;;6.18;5.40;;;;;;;;;;5072651;28;20032;-48
2021/06/21 02:22:10;;;;;;;7.43;5.82;;;;;;;;;;5072794;28;20031;-50
2021/06/21 02:24:37;;;;;;;12.77;6.15;;;;;;;;;;5072590;28;20025;-50
2021/06/21 02:27:03;;;;;;;12.00;6.35;;;;;;;;;;5072853;28;20051;-50
2021/06/21 02:29:30;;;;;;;9.43;6.50;;;;;;;;;;5073071;28;20032;-48
2021/06/21 02:31:56;;;;;;;8.73;5.78;;;;;;;;;;5073639;28;20025;-50
2021/06/21 02:34:22;;;;;;;9.18;6.45;;;;;;;;;;5074899;28;20021;-54
2021/06/21 02:36:49;;;;;;;9.10;5.80;;;;;;;;;;5074887;28;20484;-49
2021/06/21 02:39:15;;;;;;;9.23;6.57;;;;;;;;;;5076117;28;20032;-49
2021/06/21 02:41:41;;;;;;;14.00;8.85;;;;;;;;;;5075983;28;20044;-48
2021/06/21 02:44:08;;;;;;;15.43;7.68;;;;;;;;;;5075894;28;20108;-50
2021/06/21 02:46:34;;;;;;;21.80;12.30;;;;;;;;;;5075924;28;20028;-49
2021/06/21 02:49:01;;;;;;;11.40;7.28;;;;;;;;;;5075864;28;20025;-50
2021/06/21 02:51:32;;;;;;;9.48;6.53;;;;;;;;;;5076445;28;20021;-49
2021/06/21 02:54:00;;;;;;;8.68;6.65;;;;;;;;;;5075706;28;20024;-49
2021/06/21 02:56:37;;;;;;;10.00;6.85;;;;;;;;;;5075850;28;20031;-55
2021/06/21 02:59:05;;;;;;;13.52;7.22;;;;;;;;;;5075741;28;20017;-51
2021/06/21 03:01:32;;;;;;;11.20;6.95;;;;;;;;;;5057991;28;20427;-51
2021/06/21 03:03:58;;;;;;;10.05;6.35;;;;;;;;;;5075917;28;20024;-50
2021/06/21 03:06:26;;;;;;;7.47;6.00;;;;;;;;;;5075708;28;20512;-58
2021/06/21 03:08:52;;;;;;;10.07;6.75;;;;;;;;;;5075683;28;20465;-49
2021/06/21 03:11:19;;;;;;;8.43;6.40;;;;;;;;;;5075459;28;20074;-49
2021/06/21 03:13:46;;;;;;;10.07;6.55;;;;;;;;;;5075018;28;20084;-49
2021/06/21 03:16:13;;;;;;;9.90;6.85;;;;;;;;;;5075369;28;20032;-48
2021/06/21 03:18:39;;;;;;;7.78;6.18;;;;;;;;;;5075214;28;20496;-49
2021/06/21 03:21:06;;;;;;;9.20;6.53;;;;;;;;;;5075194;28;20035;-49
2021/06/21 03:23:32;;;;;;;8.90;6.38;;;;;;;;;;5075025;28;20032;-49
2021/06/21 03:26:00;;;;;;;8.95;5.68;;;;;;;;;;5075332;28;20028;-48
2021/06/21 03:28:28;;;;;;;6.82;5.88;;;;;;;;;;5075368;28;20028;-49
2021/06/21 03:30:57;;;;;;;7.82;6.28;;;;;;;;;;5075086;28;20098;-51
2021/06/21 03:33:23;;;;;;;6.65;5.43;;;;;;;;;;5075119;28;20456;-49
2021/06/21 03:35:50;;;;;;;5.78;4.80;;;;;;;;;;5074910;28;20036;-53
2021/06/21 03:38:24;;;;;;;6.93;5.30;;;;;;;;;;5075121;28;20028;-50
2021/06/21 03:40:51;;;;;;;6.28;5.50;;;;;;;;;;5075444;28;20125;-49
2021/06/21 03:43:19;;;;;;;5.78;4.85;;;;;;;;;;5074469;28;20051;-49
2021/06/21 03:45:45;;;;;;;5.47;4.88;;;;;;;;;;5074840;28;20032;-50
2021/06/21 03:48:12;;;;;;;8.57;4.80;;;;;;;;;;5074767;28;20028;-49
2021/06/21 03:50:38;;;;;;;8.60;5.60;;;;;;;;;;5074668;28;20107;-49
2021/06/21 03:53:05;;;;;;;7.30;5.85;;;;;;;;;;5073192;28;20036;-49
2021/06/21 03:55:31;;;;;;;9.48;6.07;;;;;;;;;;5074676;28;20115;-50
2021/06/21 03:57:57;;;;;;;14.63;7.03;;;;;;;;;;5074673;28;20025;-50
2021/06/21 04:00:34;;;;;;;12.57;8.00;;;;;;;;;;5074455;28;20107;-48
2021/06/21 04:03:00;;;;;;;13.68;6.78;;;;;;;;;;5073003;28;20040;-49
2021/06/21 04:05:27;;;;;;;6.97;5.35;;;;;;;;;;5074559;28;20060;-47
2021/06/21 04:07:53;;;;;;;16.13;9.73;;;;;;;;;;5074413;28;20081;-49
2021/06/21 04:10:20;;;;;;;14.15;8.75;;;;;;;;;;5074344;28;20137;-50
2021/06/21 04:12:47;;;;;;;8.65;6.45;;;;;;;;;;5074106;28;20033;-54
2021/06/21 04:15:14;;;;;;;5.32;4.68;;;;;;;;;;5073999;28;20044;-55
2021/06/21 04:17:41;;;;;;;10.07;6.13;;;;;;;;;;5074114;28;20035;-58
2021/06/21 04:20:09;;;;;;;6.10;4.38;;;;;;;;;;5074078;28;20032;-50
2021/06/21 04:22:35;;;;;;;7.78;5.93;;;;;;;;;;5074108;28;20441;-49
2021/06/21 04:25:01;;;;;;;4.45;3.95;;;;;;;;;;5074126;28;20043;-49
2021/06/21 04:27:27;;;;;;;6.07;4.25;;;;;;;;;;5073929;28;20094;-54
2021/06/21 04:29:53;;;;;;;7.75;4.10;;;;;;;;;;5073878;28;20111;-49
2021/06/21 04:32:19;;;;;;;8.25;5.45;;;;;;;;;;5072546;28;20056;-49
2021/06/21 04:34:45;;;;;;;6.70;4.63;;;;;;;;;;5074040;28;20028;-48
2021/06/21 04:37:12;;;;;;;7.35;4.15;;;;;;;;;;5072407;28;20044;-47
2021/06/21 04:39:38;;;;;;;5.88;4.22;;;;;;;;;;5073890;28;20439;-48
2021/06/21 04:42:04;;;;;;;7.75;5.38;;;;;;;;;;5073780;28;20100;-47
2021/06/21 04:44:30;;;;;;;7.75;5.90;;;;;;;;;;5073523;28;20078;-48
2021/06/21 04:46:56;;;;;;;5.88;3.75;;;;;;;;;;5073530;28;20028;-51
2021/06/21 04:49:22;;;;;;;5.55;4.15;;;;;;;;;;5073669;28;20012;-48
2021/06/21 04:51:50;;;;;;;16.40;11.23;;;;;;;;;;5073978;28;20032;-49
2021/06/21 04:54:16;;;;;;;4.97;4.13;;;;;;;;;;5073370;28;20040;-48
2021/06/21 04:56:42;;;;;;;5.70;3.47;;;;;;;;;;5072714;28;20081;-45
2021/06/21 04:59:08;;;;;;;4.80;3.33;;;;;;;;;;5073228;28;20023;-44
2021/06/21 05:01:35;;;;;;;4.97;3.40;;;;;;;;;;5072925;28;20107;-45
2021/06/21 05:04:01;;;;;;;4.25;3.47;;;;;;;;;;5071575;28;20487;-47
2021/06/21 05:06:28;;;;;;;3.67;2.88;;;;;;;;;;5073155;28;20385;-47
2021/06/21 05:08:55;;;;;;;3.72;3.40;;;;;;;;;;5071579;28;20414;-46
2021/06/21 05:11:21;;;;;;;3.78;3.25;;;;;;;;;;5072203;28;20390;-48
2021/06/21 05:13:47;;;;;;;3.85;3.00;;;;;;;;;;5072758;28;20056;-48
2021/06/21 05:16:14;;;;;;;3.35;3.05;;;;;;;;;;5072961;28;20465;-48
2021/06/21 05:18:40;;;;;;;5.43;3.50;;;;;;;;;;5073035;28;20082;-47
2021/06/21 05:21:06;;;;;;;4.90;3.30;;;;;;;;;;5073380;28;20107;-47
2021/06/21 05:23:32;;;;;;;6.03;3.90;;;;;;;;;;5073148;28;20016;-47
2021/06/21 05:25:58;;;;;;;4.30;3.05;;;;;;;;;;5073378;28;20059;-46
2021/06/21 05:28:24;;;;;;;3.70;2.70;;;;;;;;;;5072901;28;20421;-46
2021/06/21 05:30:51;;;;;;;3.63;2.67;;;;;;;;;;5072912;28;20035;-45
2021/06/21 05:33:17;;;;;;;4.00;2.80;;;;;;;;;;5072810;28;20112;-46
2021/06/21 05:35:43;;;;;;;4.90;2.92;;;;;;;;;;5072790;28;20082;-47
2021/06/21 05:38:09;;;;;;;2.90;2.60;;;;;;;;;;5073091;28;20025;-46
2021/06/21 05:40:35;;;;;;;4.47;2.65;;;;;;;;;;5072921;28;20033;-47
2021/06/21 05:43:02;;;;;;;2.60;2.33;;;;;;;;;;5072747;28;20040;-47
2021/06/21 05:45:28;;;;;;;5.35;3.30;;;;;;;;;;5072816;28;20024;-46
2021/06/21 05:47:54;;;;;;;3.13;2.83;;;;;;;;;;5073057;28;20024;-47
2021/06/21 05:50:22;;;;;;;2.67;2.47;;;;;;;;;;5073100;28;20052;-46
2021/06/21 05:52:50;;;;;;;4.68;3.10;;;;;;;;;;5072877;28;20024;-47
2021/06/21 05:55:18;;;;;;;4.22;3.20;;;;;;;;;;5072855;28;20112;-48
2021/06/21 05:57:44;;;;;;;4.30;2.80;;;;;;;;;;5072825;28;20043;-47
2021/06/21 06:00:11;;;;;;;4.63;2.40;;;;;;;;;;5072670;28;20442;-46
2021/06/21 06:02:37;;;;;;;3.60;2.70;;;;;;;;;;5072551;28;20100;-46
2021/06/21 06:05:04;;;;;;;4.65;2.72;;;;;;;;;;5072659;28;20028;-47
2021/06/21 06:07:30;;;;;;;4.70;2.45;;;;;;;;;;5074371;28;20021;-47
2021/06/21 06:09:57;;;;;;;4.18;2.63;;;;;;;;;;5076487;28;20024;-47
2021/06/21 06:12:24;;;;;;;4.18;2.53;;;;;;;;;;5076486;28;20032;-47
2021/06/21 06:14:50;;;;;;;2.50;2.30;;;;;;;;;;5076235;28;20052;-47
2021/06/21 06:17:16;;;;;;;3.70;2.50;;;;;;;;;;5076410;28;20024;-45
2021/06/21 06:19:42;;;;;;;4.97;2.83;;;;;;;;;;5076578;28;20029;-47
2021/06/21 06:22:11;;;;;;;2.42;2.22;;;;;;;;;;5076269;28;20017;-46
2021/06/21 06:24:37;;;;;;;3.67;2.40;;;;;;;;;;5076402;28;20024;-47
2021/06/21 06:27:03;;;;;;;3.72;2.90;;;;;;;;;;5076349;28;20029;-46
2021/06/21 06:29:31;;;;;;;3.70;2.53;;;;;;;;;;5076315;28;20084;-45
2021/06/21 06:31:57;;;;;;;3.05;2.53;;;;;;;;;;5076335;28;20042;-46
2021/06/21 06:34:24;;;;;;;2.75;2.47;;;;;;;;;;5076098;28;20029;-46
2021/06/21 06:36:50;;;;;;;5.40;2.58;;;;;;;;;;5075974;28;20431;-46
2021/06/21 06:39:17;;;;;;;5.10;3.05;;;;;;;;;;5076090;28;20461;-46
2021/06/21 06:41:43;;;;;;;5.30;2.40;;;;;;;;;;5075964;28;20089;-47
2021/06/21 06:44:09;;;;;;;4.05;2.58;;;;;;;;;;5075903;28;20435;-48
2021/06/21 06:46:35;;;;;;;4.18;2.63;;;;;;;;;;5076028;28;20020;-46
2021/06/21 06:49:01;;;;;;;3.83;2.30;;;;;;;;;;5075939;28;20081;-47
2021/06/21 06:51:32;;;;;;;4.30;2.58;;;;;;;;;;5076063;28;20030;-47
2021/06/21 06:59:12;;;;;;;4.97;2.55;;;;;;;;;;5075536;28;20036;-46
2021/06/21 07:01:40;;;;;;;2.42;2.03;;;;;;;;;;5075840;28;20163;-46
2021/06/21 07:04:07;;;;;;;2.92;2.05;;;;;;;;;;5074540;28;20024;-47
2021/06/21 07:06:33;;;;;;;2.40;2.08;;;;;;;;;;5075615;28;20053;-45
2021/06/21 07:08:59;;;;;;;4.95;2.65;;;;;;;;;;5075573;28;20104;-46
2021/06/21 07:11:26;;;;;;;2.95;2.35;;;;;;;;;;5075617;28;20396;-47
2021/06/21 07:13:52;;;;;;;2.83;2.53;;;;;;;;;;5075091;28;20059;-48
2021/06/21 07:16:18;;;;;;;4.20;3.00;;;;;;;;;;5074216;28;20437;-47
2021/06/21 07:18:44;;;;;;;4.18;2.40;;;;;;;;;;5074222;28;20123;-48
2021/06/21 07:21:10;;;;;;;3.40;2.15;;;;;;;;;;5075192;28;20385;-46
2021/06/21 07:23:37;;;;;;;3.70;2.28;;;;;;;;;;5075225;28;20111;-46
2021/06/21 07:26:05;;;;;;;7.47;2.72;;;;;;;;;;5075201;28;20388;-47
2021/06/21 07:28:32;;;;;;;2.95;2.60;;;;;;;;;;5075146;28;20038;-46
2021/06/21 07:30:58;;;;;;;2.53;2.22;;;;;;;;;;5075055;28;20106;-47
2021/06/21 07:33:24;;;;;;;2.15;2.00;;;;;;;;;;5075052;28;20045;-45
2021/06/21 07:35:51;;;;;;;3.55;2.10;;;;;;;;;;5074749;28;20553;-45
2021/06/21 07:38:18;;;;;;;4.88;2.40;;;;;;;;;;5074891;28;20085;-48
2021/06/21 07:40:44;;;;;;;4.55;2.53;;;;;;;;;;5074885;28;20035;-47
2021/06/21 07:43:10;;;;;;;2.53;2.33;;;;;;;;;;5074686;28;20028;-47
2021/06/21 07:45:36;;;;;;;2.25;2.00;;;;;;;;;;5074626;28;20024;-47
2021/06/21 07:48:02;;;;;;;6.78;2.42;;;;;;;;;;5074781;28;20029;-47
2021/06/21 07:50:30;;;;;;;4.28;2.10;;;;;;;;;;5074796;28;20104;-46
2021/06/21 07:52:56;;;;;;;2.33;2.20;;;;;;;;;;5074559;28;20056;-47
2021/06/21 07:55:25;;;;;;;2.50;2.30;;;;;;;;;;5074494;28;20119;-48
2021/06/21 07:57:55;;;;;;;3.70;2.50;;;;;;;;;;5075029;28;20044;-48
2021/06/21 08:00:23;;;;;;;2.75;2.20;;;;;;;;;;5074696;28;20494;-48
2021/06/21 08:02:50;;;;;;;3.42;2.58;;;;;;;;;;5074741;28;20016;-48
2021/06/21 08:05:16;;;;;;;2.58;2.15;;;;;;;;;;5074602;28;20473;-48
2021/06/21 08:07:42;;;;;;;3.92;2.30;;;;;;;;;;5074490;28;20017;-47
2021/06/21 08:10:09;;;;;;;2.97;2.45;;;;;;;;;;5074276;28;20029;-47
2021/06/21 08:12:35;;;;;;;2.72;2.53;;;;;;;;;;5074058;28;20020;-43
2021/06/21 08:15:01;;;;;;;2.90;2.60;;;;;;;;;;5073802;28;20094;-47
2021/06/21 08:17:27;;;;;;;2.90;2.20;;;;;;;;;;5073983;28;20086;-43
2021/06/21 08:19:55;;;;;;;2.83;2.50;;;;;;;;;;5074182;28;20028;-47
2021/06/21 08:22:22;;;;;;;3.85;2.58;;;;;;;;;;5073911;28;20036;-46
2021/06/21 08:24:48;;;;;;;4.68;2.50;;;;;;;;;;5073948;28;20028;-46
2021/06/21 08:27:15;;;;;;;3.97;2.53;;;;;;;;;;5073853;28;20025;-48
2021/06/21 08:29:42;;;;;;;2.47;2.28;;;;;;;;;;5073884;28;20020;-44
2021/06/21 08:32:08;;;;;;;2.50;2.30;;;;;;;;;;5073742;28;20035;-47
2021/06/21 08:34:34;;;;;;;2.50;2.30;;;;;;;;;;5073969;28;20131;-48
2021/06/21 08:37:00;;;;;;;3.92;2.58;;;;;;;;;;5073814;28;20109;-47
2021/06/21 08:39:26;;;;;;;2.53;2.33;;;;;;;;;;5073861;28;20077;-48
2021/06/21 08:41:54;;;;;;;4.97;2.53;;;;;;;;;;5073569;28;20021;-47
2021/06/21 08:44:21;;;;;;;2.70;2.42;;;;;;;;;;5073410;28;20028;-46
2021/06/21 08:46:49;;;;;;;2.72;2.47;;;;;;;;;;5073714;28;20020;-46
2021/06/21 08:49:15;;;;;;;5.25;2.50;;;;;;;;;;5073577;28;20321;-46
2021/06/21 08:51:42;;;;;;;3.67;2.70;;;;;;;;;;5073335;28;20362;-46
2021/06/21 08:54:08;;;;;;;2.88;2.33;;;;;;;;;;5073403;28;20021;-45
2021/06/21 08:56:34;;;;;;;4.18;2.83;;;;;;;;;;5073441;28;20064;-42
2021/06/21 08:59:04;;;;;;;3.88;3.47;;;;;;;;;;5073257;28;20089;-44
2021/06/21 09:01:30;;;;;;;4.23;2.83;;;;;;;;;;5073414;28;20025;-43
2021/06/21 09:03:56;;;;;;;2.83;2.55;;;;;;;;;;5073364;28;20360;-44
2021/06/21 09:06:23;;;;;;;3.97;2.30;;;;;;;;;;5073347;28;20020;-45
2021/06/21 09:08:53;;;;;;;3.05;2.75;;;;;;;;;;5073303;28;20111;-44
2021/06/21 09:11:19;;;;;;;3.05;2.78;;;;;;;;;;5073227;28;20025;-43
2021/06/21 09:13:45;;;;;;;3.88;2.35;;;;;;;;;;5072788;28;20105;-42
2021/06/21 09:16:11;;;;;;;2.30;2.10;;;;;;;;;;5073142;28;20457;-43
2021/06/21 09:18:39;;;;;;;2.60;2.30;;;;;;;;;;5072997;28;20021;-42
2021/06/21 09:21:18;;;;;;;2.72;2.53;;;;;;;;;;5073012;28;20033;-42
2021/06/21 09:23:44;;;;;;;3.45;2.60;;;;;;;;;;5073082;28;20100;-43
2021/06/21 09:26:16;;;;;;;2.70;2.38;;;;;;;;;;5072845;28;20029;-43
2021/06/21 09:28:42;;;;;;;3.90;2.35;;;;;;;;;;5072950;28;20020;-44
2021/06/21 09:31:08;;;;;;;3.00;2.63;;;;;;;;;;5072991;28;20029;-43
2021/06/21 09:33:34;;;;;;;2.53;2.20;;;;;;;;;;5073079;28;20035;-44
2021/06/21 09:36:00;;;;;;;2.55;2.35;;;;;;;;;;5073012;28;20086;-46
2021/06/21 09:38:26;;;;;;;2.17;2.08;;;;;;;;;;5071511;28;20488;-42
2021/06/21 09:40:54;;;;;;;6.20;2.70;;;;;;;;;;5072653;28;20485;-44
2021/06/21 09:43:30;;;;;;;3.58;2.17;;;;;;;;;;5072208;28;20029;-42
2021/06/21 09:46:02;;;;;;;3.20;2.30;;;;;;;;;;5072866;28;20039;-43
2021/06/21 09:48:32;;;;;;;2.42;2.22;;;;;;;;;;5072715;28;20029;-43
2021/06/21 09:50:59;;;;;;;2.50;2.30;;;;;;;;;;5072642;28;20032;-42
2021/06/21 09:53:25;;;;;;;2.60;2.40;;;;;;;;;;5072701;28;20095;-43
2021/06/21 09:55:51;;;;;;;5.32;2.25;;;;;;;;;;5072584;28;20032;-43
2021/06/21 09:58:21;;;;;;;2.70;2.50;;;;;;;;;;5072667;28;20031;-45
2021/06/21 10:00:51;;;;;;;6.25;2.50;;;;;;;;;;5072686;28;20029;-44
2021/06/21 10:03:17;;;;;;;4.07;2.08;;;;;;;;;;5072599;28;20419;-44
2021/06/21 10:05:45;;;;;;;4.13;2.80;;;;;;;;;;5072614;28;20444;-44
2021/06/21 10:08:13;;;;;;;3.55;2.40;;;;;;;;;;5072490;28;20043;-44
2021/06/21 10:10:40;;;;;;;3.55;2.50;;;;;;;;;;5072633;28;20389;-43
2021/06/21 10:13:07;;;;;;;2.38;2.17;;;;;;;;;;5072193;28;20036;-42
2021/06/21 10:15:35;;;;;;;2.60;2.40;;;;;;;;;;5072535;28;20032;-43
2021/06/21 10:18:01;;;;;;;4.32;2.40;;;;;;;;;;5072467;28;20024;-44
2021/06/21 10:20:30;;;;;;;3.17;2.13;;;;;;;;;;5072439;28;20028;-43
2021/06/21 10:22:57;;;;;;;2.83;2.17;;;;;;;;;;5072390;28;20028;-44
2021/06/21 10:25:23;;;;;;;3.47;2.65;;;;;;;;;;5072365;28;20024;-44
2021/06/21 10:27:50;;;;;;;5.28;2.40;;;;;;;;;;5072518;28;20023;-44
2021/06/21 10:30:18;;;;;;;3.28;2.50;;;;;;;;;;5072748;28;20059;-45
2021/06/21 10:32:44;;;;;;;4.93;2.83;;;;;;;;;;5072442;28;20017;-44
2021/06/21 10:35:12;;;;;;;2.83;2.55;;;;;;;;;;5072493;28;20029;-45
2021/06/21 10:37:39;;;;;;;3.40;2.60;;;;;;;;;;5072254;28;20056;-49
2021/06/21 10:40:09;;;;;;;3.20;2.63;;;;;;;;;;5072524;28;20024;-46
2021/06/21 10:42:37;;;;;;;2.60;2.40;;;;;;;;;;5072258;28;20024;-44
2021/06/21 10:45:07;;;;;;;2.72;2.50;;;;;;;;;;5072336;28;20043;-42
2021/06/21 10:47:34;;;;;;;4.30;2.47;;;;;;;;;;5072500;28;20024;-41
2021/06/21 10:50:07;;;;;;;2.83;2.45;;;;;;;;;;5072003;28;20029;-43
2021/06/21 10:52:49;;;;;;;3.30;2.75;;;;;;;;;;5072296;28;20040;-44
2021/06/21 10:55:28;;;;;;;2.75;2.33;;;;;;;;;;5074864;28;20032;-42
2021/06/21 10:57:55;;;;;;;4.50;3.17;;;;;;;;;;5075842;28;20028;-42
2021/06/21 11:00:31;;;;;;;4.30;2.20;;;;;;;;;;5075914;28;20103;-44
2021/06/21 11:02:57;;;;;;;4.15;2.40;;;;;;;;;;5075470;28;20151;-43
2021/06/21 11:05:42;;;;;;;5.28;3.03;;;;;;;;;;5075553;28;20537;-43
2021/06/21 11:08:27;;;;;;;6.88;2.88;;;;;;;;;;5075615;28;20028;-43
2021/06/21 11:10:54;;;;;;;4.63;2.60;;;;;;;;;;5075613;28;20070;-43
2021/06/21 11:13:30;;;;;;;2.67;2.47;;;;;;;;;;5075043;28;20078;-45
2021/06/21 11:16:22;;;;;;;4.53;3.00;;;;;;;;;;5075305;28;20429;-44
2021/06/21 11:18:51;;;;;;;5.13;2.50;;;;;;;;;;5075211;28;20033;-44
2021/06/21 11:21:22;;;;;;;3.08;2.60;;;;;;;;;;5074051;28;20036;-45
2021/06/21 11:23:54;;;;;;;3.38;2.67;;;;;;;;;;5075393;28;20065;-44
2021/06/21 11:26:21;;;;;;;3.22;2.92;;;;;;;;;;5075329;28;20032;-44
2021/06/21 11:28:48;;;;;;;3.30;3.00;;;;;;;;;;5075192;28;20244;-43
2021/06/21 11:31:23;;;;;;;4.00;2.83;;;;;;;;;;5075361;28;20028;-44
2021/06/21 11:33:52;;;;;;;5.40;2.50;;;;;;;;;;5075100;28;20050;-44
2021/06/21 11:36:37;;;;;;;5.05;2.67;;;;;;;;;;5074927;28;20361;-44
2021/06/21 11:39:23;;;;;;;2.95;2.60;;;;;;;;;;5075214;28;20037;-43
2021/06/21 11:41:57;;;;;;;3.20;2.63;;;;;;;;;;5074898;28;20105;-44
2021/06/21 11:44:41;;;;;;;4.30;2.22;;;;;;;;;;5074079;28;20043;-45
2021/06/21 11:47:29;;;;;;;2.83;2.45;;;;;;;;;;5073685;28;20445;-48
2021/06/21 11:50:12;;;;;;;3.67;3.35;;;;;;;;;;5072134;28;20012;-46
2021/06/21 11:52:39;;;;;;;7.13;3.92;;;;;;;;;;5054952;28;20017;-45
2021/06/21 11:55:17;;;;;;;3.58;2.90;;;;;;;;;;5054995;28;20057;-46
2021/06/21 11:57:44;;;;;;;3.78;3.25;;;;;;;;;;5054465;28;20033;-45
2021/06/21 12:00:11;;;;;;;6.90;4.15;;;;;;;;;;5054582;28;20025;-43
2021/06/21 12:02:37;;;;;;;3.38;3.08;;;;;;;;;;5054477;28;20021;-44
2021/06/21 12:05:08;;;;;;;3.67;3.08;;;;;;;;;;5053755;28;20033;-44
2021/06/21 12:07:35;;;;;;;6.82;2.85;;;;;;;;;;5054194;28;20074;-45
2021/06/21 12:10:04;;;;;;;5.13;2.80;;;;;;;;;;5054031;28;20021;-45
2021/06/21 12:12:33;;;;;;;3.25;2.95;;;;;;;;;;5054176;28;20017;-45
2021/06/21 12:15:00;;;;;;;6.88;3.55;;;;;;;;;;5054007;28;20555;-46
2021/06/21 12:17:28;;;;;;;4.40;3.13;;;;;;;;;;5054202;28;20032;-43
2021/06/21 12:20:00;;;;;;;3.20;2.80;;;;;;;;;;5054099;28;20024;-45
2021/06/21 12:22:26;;;;;;;5.32;3.30;;;;;;;;;;5073664;28;20052;-46
2021/06/21 12:24:52;;;;;;;3.60;3.15;;;;;;;;;;5073855;28;20028;-44
2021/06/21 12:27:18;;;;;;;5.05;2.88;;;;;;;;;;5074140;28;20028;-44
2021/06/21 12:29:44;;;;;;;3.17;2.80;;;;;;;;;;5073693;28;20370;-43
2021/06/21 12:32:11;;;;;;;6.72;3.17;;;;;;;;;;5073626;28;20027;-43
2021/06/21 12:34:40;;;;;;;3.75;3.17;;;;;;;;;;5073569;28;20107;-45
2021/06/21 12:37:17;;;;;;;5.38;3.50;;;;;;;;;;5073481;28;20388;-44
2021/06/21 12:39:47;;;;;;;4.65;3.72;;;;;;;;;;5073514;28;20381;-44
2021/06/21 12:42:15;;;;;;;4.32;3.78;;;;;;;;;;5073676;28;20028;-44
2021/06/21 12:44:42;;;;;;;5.00;3.30;;;;;;;;;;5073458;28;20036;-43
2021/06/21 12:47:34;;;;;;;4.57;3.28;;;;;;;;;;5073934;28;20139;-44
2021/06/21 12:50:05;;;;;;;7.05;3.75;;;;;;;;;;5072189;28;20047;-44
2021/06/21 12:52:33;;;;;;;3.13;2.83;;;;;;;;;;5073534;28;20069;-44
2021/06/21 12:55:07;;;;;;;4.82;3.15;;;;;;;;;;5073322;28;20499;-43
2021/06/21 12:57:43;;;;;;;3.90;3.50;;;;;;;;;;5073330;28;20021;-45
2021/06/21 13:00:10;;;;;;;4.88;3.40;;;;;;;;;;5073316;28;20725;-44
2021/06/21 13:02:36;;;;;;;5.72;3.33;;;;;;;;;;5073226;28;20040;-45
2021/06/21 13:05:04;;;;;;;5.18;3.22;;;;;;;;;;5073313;28;20028;-47
2021/06/21 13:07:30;;;;;;;7.90;3.90;;;;;;;;;;5073063;28;20028;-43
2021/06/21 13:09:57;;;;;;;6.50;4.95;;;;;;;;;;5073078;28;20034;-44
2021/06/21 13:12:23;;;;;;;11.95;4.18;;;;;;;;;;5073118;28;20111;-44
2021/06/21 13:14:50;;;;;;;8.02;4.18;;;;;;;;;;5072563;28;20051;-44
2021/06/21 13:17:21;;;;;;;7.85;4.00;;;;;;;;;;5072262;28;20043;-45
2021/06/21 13:19:50;;;;;;;6.90;4.35;;;;;;;;;;5072774;28;20043;-45
2021/06/21 13:22:30;;;;;;;6.32;4.40;;;;;;;;;;5073144;28;20044;-44
2021/06/21 13:24:56;;;;;;;;;;;;;;;;;;5071643;28;20353;-46
2021/06/21 13:27:29;;;;;;;8.43;5.00;;;;;;;;;;5072979;28;19905;-46
2021/06/21 13:29:57;;;;;;;7.43;3.72;;;;;;;;;;5089806;28;20495;-45
2021/06/21 13:32:28;;;;;;;6.95;4.57;;;;;;;;;;5093113;28;20535;-43
2021/06/21 13:34:55;;;;;;;8.05;4.28;;;;;;;;;;5093069;28;20085;-44
2021/06/21 13:37:24;;;;;;;11.93;6.15;;;;;;;;;;5076218;28;20039;-44
2021/06/21 13:40:08;;;;;;;9.32;4.43;;;;;;;;;;5072786;28;20485;-45
2021/06/21 13:42:40;;;;;;;8.45;4.57;;;;;;;;;;5072621;28;20056;-44
2021/06/21 13:45:14;;;;;;;5.03;4.10;;;;;;;;;;5073157;28;20395;-47
2021/06/21 13:47:44;;;;;;;7.93;4.55;;;;;;;;;;5073154;28;20023;-46
2021/06/21 13:50:11;;;;;;;7.82;4.43;;;;;;;;;;5073176;28;20060;-47
2021/06/21 13:52:39;;;;;;;6.05;3.97;;;;;;;;;;5072785;28;20025;-47
2021/06/21 13:55:06;;;;;;;4.72;4.15;;;;;;;;;;5088080;28;20119;-46
2021/06/21 13:57:36;;;;;;;6.18;4.10;;;;;;;;;;5073014;28;20033;-48
2021/06/21 14:00:04;;;;;;;5.65;4.10;;;;;;;;;;5072855;28;20486;-49
2021/06/21 14:02:31;;;;;;;6.93;3.92;;;;;;;;;;5072878;28;20020;-47
2021/06/21 14:04:57;;;;;;;8.40;4.35;;;;;;;;;;5072827;28;20043;-43
2021/06/21 14:07:23;;;;;;;7.43;4.10;;;;;;;;;;5072496;28;20064;-43
2021/06/21 14:09:59;;;;;;;6.63;4.00;;;;;;;;;;5091332;28;20087;-46
2021/06/21 14:12:25;;;;;;;6.03;4.25;;;;;;;;;;5092886;28;20020;-42
2021/06/21 14:14:52;;;;;;;6.18;4.55;;;;;;;;;;5092707;28;20051;-46
2021/06/21 14:17:22;;;;;;;5.05;4.13;;;;;;;;;;5093004;28;20028;-49
2021/06/21 14:19:48;;;;;;;5.68;4.10;;;;;;;;;;5092910;28;20484;-45
2021/06/21 14:22:15;;;;;;;6.30;4.00;;;;;;;;;;5092762;28;20056;-47
2021/06/21 14:24:41;;;;;;;6.28;4.97;;;;;;;;;;5092932;28;20500;-45
2021/06/21 14:27:07;;;;;;;6.00;4.15;;;;;;;;;;5092855;28;20028;-46
2021/06/21 14:29:34;;;;;;;8.38;4.40;;;;;;;;;;5096239;28;20071;-47
2021/06/21 14:32:00;;;;;;;14.68;4.40;;;;;;;;;;5096723;28;20016;-44
2021/06/21 14:34:26;;;;;;;8.70;4.63;;;;;;;;;;5096480;28;20036;-47
2021/06/21 14:36:53;;;;;;;6.32;4.38;;;;;;;;;;5096593;28;20483;-48
2021/06/21 14:39:19;;;;;;;6.88;4.18;;;;;;;;;;5096497;28;20085;-44
2021/06/21 14:41:45;;;;;;;13.93;4.30;;;;;;;;;;5096555;28;20020;-48
2021/06/21 14:44:11;;;;;;;5.88;4.50;;;;;;;;;;5095443;28;20036;-48
2021/06/21 14:46:37;;;;;;;12.60;4.70;;;;;;;;;;5096397;28;20054;-48
2021/06/21 14:49:06;;;;;;;10.20;4.57;;;;;;;;;;5096379;28;20031;-47
2021/06/21 14:51:32;;;;;;;9.20;4.38;;;;;;;;;;5096441;28;20028;-47